Time;durP1;ratioP1;P1;durP2;ratioP2;P2;SDS_P1;SDS_P2;PMS_P1;PMS_P2;Temp;Humidity;BMP_temperature;BMP_pressure;BME280_temperature;BME280_humidity;BME280_pressure;Samples;Min_cycle;Max_cycle;Signal;HPM_P1;HPM_P2
2022/03/01 00:01:11;;;;;;;64.60;27.50;;;;;;;-3.53;67.54;102236.70;2182124;79;21031;-72
2022/03/01 00:04:13;;;;;;;61.42;27.82;;;;;;;-3.63;67.99;102244.64;2184712;79;21125;-71
2022/03/01 00:07:14;;;;;;;57.17;25.25;;;;;;;-3.63;68.21;102245.94;2216685;79;21575;-73
2022/03/01 00:10:16;;;;;;;62.88;26.95;;;;;;;-3.60;68.19;102242.44;2211050;79;21689;-73
2022/03/01 00:13:17;;;;;;;58.10;26.45;;;;;;;-3.60;68.33;102238.55;2212084;79;21551;-72
2022/03/01 00:16:19;;;;;;;62.30;27.13;;;;;;;-3.58;68.41;102238.51;2208184;79;21544;-72
2022/03/01 00:19:21;;;;;;;53.80;24.95;;;;;;;-3.53;68.48;102232.36;2210704;79;21676;-72
2022/03/01 00:22:23;;;;;;;60.20;26.25;;;;;;;-3.50;68.46;102237.95;2198947;79;21118;-76
2022/03/01 00:25:27;;;;;;;59.48;26.00;;;;;;;-3.55;68.34;102231.52;2191492;80;21044;-73
2022/03/01 00:28:28;;;;;;;63.15;25.68;;;;;;;-3.66;68.45;102229.13;2195102;80;21045;-72
2022/03/01 00:31:30;;;;;;;61.70;26.82;;;;;;;-3.72;68.73;102230.48;2132413;82;21566;-74
2022/03/01 00:34:32;;;;;;;64.30;24.35;;;;;;;-3.76;68.92;102231.88;2127685;82;21060;-73
2022/03/01 00:37:33;;;;;;;54.95;23.22;;;;;;;-3.78;68.98;102229.30;2188540;80;21029;-72
2022/03/01 00:40:35;;;;;;;59.95;24.87;;;;;;;-3.75;69.03;102228.39;2189301;80;21056;-72
2022/03/01 00:43:36;;;;;;;54.58;22.75;;;;;;;-3.76;69.01;102247.45;2191127;80;21663;-76
2022/03/01 00:46:41;;;;;;;56.08;22.13;;;;;;;-3.84;69.07;102238.47;2189078;80;21037;-76
2022/03/01 00:49:41;;;;;;;49.95;20.12;;;;;;;-3.89;69.17;102240.27;2190885;80;21647;-75
2022/03/01 00:52:43;;;;;;;47.08;20.52;;;;;;;-3.92;69.42;102245.50;2188546;80;21077;-72
2022/03/01 00:55:45;;;;;;;43.65;19.32;;;;;;;-3.93;69.66;102239.91;2187709;80;22201;-72
2022/03/01 00:58:46;;;;;;;55.15;20.77;;;;;;;-3.93;69.61;102236.87;2189269;80;21583;-72
2022/03/01 01:01:47;;;;;;;43.48;18.70;;;;;;;-3.91;69.55;102242.91;2190522;80;21076;-73
2022/03/01 01:04:49;;;;;;;52.93;22.00;;;;;;;-3.91;69.57;102239.45;2191300;80;21056;-73
2022/03/01 01:07:51;;;;;;;49.85;21.27;;;;;;;-3.90;69.61;102243.31;2132358;82;21085;-73
2022/03/01 01:10:53;;;;;;;53.92;22.50;;;;;;;-3.89;69.72;102237.23;2188121;80;21064;-73
2022/03/01 01:13:55;;;;;;;67.58;23.65;;;;;;;-3.88;69.97;102227.30;2189506;80;21598;-72
2022/03/01 01:16:56;;;;;;;52.17;23.20;;;;;;;-3.80;69.86;102244.05;2129716;82;21036;-72
2022/03/01 01:19:58;;;;;;;49.85;22.20;;;;;;;-3.78;69.84;102247.45;2132883;82;22215;-72
2022/03/01 01:22:59;;;;;;;59.63;23.70;;;;;;;-3.80;69.68;102245.76;2203683;79;21080;-72
2022/03/01 01:26:01;;;;;;;54.67;23.10;;;;;;;-3.85;69.76;102246.70;2166774;81;21333;-73
2022/03/01 01:29:02;;;;;;;51.70;23.22;;;;;;;-3.81;69.88;102244.91;2196262;79;21495;-73
2022/03/01 01:32:05;;;;;;;50.63;20.95;;;;;;;-3.79;69.84;102243.16;2190407;79;21028;-72
2022/03/01 01:35:12;;;;;;;56.63;23.38;;;;;;;-3.77;69.76;102251.78;2194314;79;21108;-73
2022/03/01 01:38:14;;;;;;;53.28;22.55;;;;;;;-3.74;69.89;102255.62;2185673;79;21068;-74
2022/03/01 01:41:15;;;;;;;50.70;22.58;;;;;;;-3.66;70.03;102252.89;2197291;79;21048;-73
2022/03/01 01:44:18;;;;;;;49.85;23.42;;;;;;;-3.56;70.16;102252.33;2177857;80;21065;-73
2022/03/01 01:47:19;;;;;;;52.98;21.60;;;;;;;-3.51;70.14;102253.97;2188663;79;20996;-73
2022/03/01 01:50:23;;;;;;;57.33;23.12;;;;;;;-3.44;70.01;102250.81;2203890;80;21040;-73
2022/03/01 01:53:25;;;;;;;58.70;22.42;;;;;;;-3.40;69.92;102262.88;2205094;80;21037;-72
2022/03/01 01:56:26;;;;;;;52.40;21.82;;;;;;;-3.40;69.71;102251.20;2204762;80;21087;-72
2022/03/01 01:59:28;;;;;;;55.88;23.18;;;;;;;-3.41;69.62;102254.66;2204280;80;21084;-73
2022/03/01 02:02:29;;;;;;;53.20;21.95;;;;;;;-3.36;69.70;102249.40;2150958;81;22526;-74
2022/03/01 02:05:33;;;;;;;52.65;24.67;;;;;;;-3.39;69.51;102254.20;2209965;80;21024;-73
2022/03/01 02:08:34;;;;;;;51.88;23.12;;;;;;;-3.43;69.70;102261.19;2210668;80;21021;-72
2022/03/01 02:11:37;;;;;;;57.10;24.72;;;;;;;-3.46;69.53;102262.98;2209132;79;21487;-73
2022/03/01 02:14:40;;;;;;;50.80;23.22;;;;;;;-3.53;69.49;102260.06;2174425;81;21761;-73
2022/03/01 02:17:43;;;;;;;64.35;26.48;;;;;;;-3.54;69.50;102249.27;2212673;80;21013;-73
2022/03/01 02:20:45;;;;;;;60.38;27.62;;;;;;;-3.61;69.79;102255.83;2211048;80;21060;-73
2022/03/01 02:23:46;;;;;;;73.85;29.75;;;;;;;-3.84;69.63;102251.00;2171990;80;21580;-72
2022/03/01 02:26:48;;;;;;;64.00;27.05;;;;;;;-3.98;69.90;102250.78;2171606;81;21590;-76
2022/03/01 02:29:50;;;;;;;64.75;28.27;;;;;;;-4.20;69.95;102241.99;2168766;81;21076;-72
2022/03/01 02:32:51;;;;;;;77.00;33.78;;;;;;;-4.34;70.26;102242.61;2172837;81;21072;-73
2022/03/01 02:35:53;;;;;;;62.27;27.20;;;;;;;-4.39;70.45;102245.70;2100934;84;21085;-73
2022/03/01 02:38:54;;;;;;;60.78;26.37;;;;;;;-4.46;70.55;102246.22;2123287;82;21097;-72
2022/03/01 02:41:56;;;;;;;58.83;24.82;;;;;;;-4.51;70.67;102245.42;2145182;81;21049;-72
2022/03/01 02:44:58;;;;;;;63.23;25.05;;;;;;;-4.56;70.63;102233.83;2142199;81;21001;-74
2022/03/01 02:48:00;;;;;;;65.80;27.55;;;;;;;-4.51;70.71;102238.94;2138769;81;21027;-72
2022/03/01 02:51:01;;;;;;;62.85;26.27;;;;;;;-4.49;70.81;102242.82;2146376;81;22515;-73
2022/03/01 02:54:04;;;;;;;65.78;26.60;;;;;;;-4.54;70.63;102243.72;2144665;81;21049;-74
2022/03/01 02:57:06;;;;;;;64.17;28.00;;;;;;;-4.49;70.89;102240.23;2144136;81;21581;-73
2022/03/01 03:00:10;;;;;;;57.73;27.00;;;;;;;-4.44;70.76;102241.89;2146143;81;21049;-72
2022/03/01 03:03:12;;;;;;;50.12;24.92;;;;;;;-4.43;70.71;102239.70;2147593;81;21025;-72
2022/03/01 03:06:13;;;;;;;63.83;25.40;;;;;;;-4.46;70.77;102241.48;2157655;81;21040;-73
2022/03/01 03:09:16;;;;;;;57.62;26.12;;;;;;;-4.58;70.87;102246.38;2170176;81;21041;-73
2022/03/01 03:12:18;;;;;;;66.85;27.50;;;;;;;-4.61;70.98;102247.27;2146048;81;20950;-72
2022/03/01 03:15:20;;;;;;;56.88;27.10;;;;;;;-4.59;70.97;102241.64;2142889;81;21060;-72
2022/03/01 03:18:21;;;;;;;60.38;27.52;;;;;;;-4.49;70.96;102233.75;2170227;81;21132;-72
2022/03/01 03:21:23;;;;;;;62.62;27.75;;;;;;;-4.41;71.01;102234.08;2126259;82;21114;-73
2022/03/01 03:24:25;;;;;;;65.00;28.80;;;;;;;-4.35;70.91;102229.25;2172282;81;21057;-72
2022/03/01 03:27:26;;;;;;;70.80;28.87;;;;;;;-4.20;71.17;102225.59;2172571;81;21072;-71
2022/03/01 03:30:28;;;;;;;72.92;29.67;;;;;;;-4.12;71.05;102236.27;2150903;81;21020;-73
2022/03/01 03:33:29;;;;;;;66.35;28.15;;;;;;;-4.14;70.85;102239.76;2154621;81;21052;-75
2022/03/01 03:36:31;;;;;;;70.42;28.45;;;;;;;-4.21;71.08;102239.44;2153954;81;21342;-72
2022/03/01 03:39:33;;;;;;;73.80;30.10;;;;;;;-4.34;71.16;102240.02;2152818;81;21087;-74
2022/03/01 03:42:34;;;;;;;62.00;27.87;;;;;;;-4.42;71.34;102237.55;2169313;81;21033;-72
2022/03/01 03:45:36;;;;;;;68.17;29.82;;;;;;;-4.39;71.35;102231.03;2148760;81;21075;-74
2022/03/01 03:48:37;;;;;;;73.92;28.65;;;;;;;-4.36;71.22;102230.98;2149545;81;21004;-74
2022/03/01 03:51:39;;;;;;;62.23;27.93;;;;;;;-4.36;71.30;102219.33;2179138;81;20986;-73
2022/03/01 03:54:40;;;;;;;68.92;29.42;;;;;;;-4.36;71.36;102214.59;2124612;82;21029;-74
2022/03/01 03:57:41;;;;;;;58.38;26.90;;;;;;;-4.35;71.62;102214.99;2150162;81;21048;-76
2022/03/01 04:00:43;;;;;;;59.33;25.37;;;;;;;-4.36;71.62;102212.84;2149968;81;21040;-73
2022/03/01 04:03:44;;;;;;;57.05;26.77;;;;;;;-4.33;71.55;102210.66;2171903;81;21032;-73
2022/03/01 04:06:46;;;;;;;50.67;24.65;;;;;;;-4.27;71.37;102211.86;2174813;81;21057;-72
2022/03/01 04:09:47;;;;;;;63.52;27.58;;;;;;;-4.23;71.39;102199.70;2175684;81;21014;-73
2022/03/01 04:12:49;;;;;;;63.38;27.52;;;;;;;-4.14;71.51;102203.05;2173996;81;21013;-73
2022/03/01 04:15:51;;;;;;;68.02;28.45;;;;;;;-4.11;71.63;102199.52;2173126;81;21076;-73
2022/03/01 04:18:52;;;;;;;65.92;29.82;;;;;;;-4.11;71.33;102192.63;2170202;81;21063;-73
2022/03/01 04:21:54;;;;;;;66.95;28.75;;;;;;;-4.17;71.23;102197.88;2175392;80;21071;-73
2022/03/01 04:24:57;;;;;;;63.42;28.92;;;;;;;-4.20;71.27;102191.44;2165956;81;22355;-73
2022/03/01 04:27:58;;;;;;;62.65;26.85;;;;;;;-4.16;71.32;102189.69;2173571;81;21053;-73
2022/03/01 04:31:01;;;;;;;66.70;27.75;;;;;;;-4.17;71.33;102183.61;2196297;79;21738;-72
2022/03/01 04:34:02;;;;;;;59.85;28.07;;;;;;;-4.16;71.46;102181.45;2197798;79;21060;-73
2022/03/01 04:37:04;;;;;;;63.45;28.42;;;;;;;-4.25;71.37;102178.13;2194628;79;21047;-72
2022/03/01 04:40:08;;;;;;;60.85;27.98;;;;;;;-4.28;71.46;102176.42;2194356;79;21018;-73
2022/03/01 04:43:10;;;;;;;68.02;28.75;;;;;;;-4.26;71.79;102159.57;2174474;79;21067;-72
2022/03/01 04:46:11;;;;;;;79.77;31.95;;;;;;;-4.25;71.85;102168.64;2196299;79;21072;-72
2022/03/01 04:49:13;;;;;;;74.70;32.33;;;;;;;-4.22;71.80;102167.70;2192536;79;21036;-75
2022/03/01 04:52:14;;;;;;;88.82;35.73;;;;;;;-4.25;71.75;102162.16;2193901;79;21033;-72
2022/03/01 04:55:16;;;;;;;89.52;36.83;;;;;;;-4.27;71.93;102162.61;2197433;79;21036;-73
2022/03/01 04:58:17;;;;;;;90.25;38.23;;;;;;;-4.26;71.92;102161.72;2197311;79;21025;-72
2022/03/01 05:01:19;;;;;;;83.40;34.27;;;;;;;-4.27;71.76;102160.46;2193438;79;21059;-73
2022/03/01 05:04:22;;;;;;;77.82;31.65;;;;;;;-4.37;71.77;102154.53;2197889;79;21042;-73
2022/03/01 05:07:23;;;;;;;71.57;28.80;;;;;;;-4.48;72.00;102165.05;2194270;80;21057;-72
2022/03/01 05:10:25;;;;;;;69.12;29.23;;;;;;;-4.48;72.14;102153.83;2195409;80;21029;-76
2022/03/01 05:13:27;;;;;;;64.30;27.13;;;;;;;-4.46;72.24;102159.85;2169615;81;21075;-72
2022/03/01 05:16:28;;;;;;;61.55;27.73;;;;;;;-4.42;72.31;102159.80;2190422;80;20978;-72
2022/03/01 05:19:30;;;;;;;62.50;27.93;;;;;;;-4.35;72.30;102163.16;2190359;80;21645;-73
2022/03/01 05:22:32;;;;;;;81.20;28.10;;;;;;;-4.27;72.18;102160.02;2191894;79;21092;-72
2022/03/01 05:25:33;;;;;;;59.60;28.02;;;;;;;-4.27;72.31;102160.02;2182936;80;21587;-71
2022/03/01 05:28:35;;;;;;;71.25;28.40;;;;;;;-4.36;72.14;102163.59;2185851;80;21567;-73
2022/03/01 05:31:36;;;;;;;60.45;25.15;;;;;;;-4.56;72.16;102167.76;2166189;80;21050;-74
2022/03/01 05:34:38;;;;;;;64.35;27.17;;;;;;;-4.76;72.45;102161.95;2144648;81;21002;-73
2022/03/01 05:37:41;;;;;;;57.05;24.07;;;;;;;-4.91;72.46;102163.45;2137080;81;21570;-71
2022/03/01 05:40:43;;;;;;;55.78;25.55;;;;;;;-4.90;72.91;102163.41;2190456;80;21011;-73
2022/03/01 05:43:45;;;;;;;58.75;25.88;;;;;;;-4.72;72.92;102161.05;2191360;80;21080;-70
2022/03/01 05:46:47;;;;;;;62.80;26.17;;;;;;;-4.62;72.86;102163.92;2193405;80;21040;-81
2022/03/01 05:49:51;;;;;;;55.90;26.48;;;;;;;-4.54;72.72;102154.77;2191031;80;21413;-72
2022/03/01 05:52:54;;;;;;;56.15;25.80;;;;;;;-4.43;72.67;102161.10;2191043;80;21640;-75
2022/03/01 05:55:57;;;;;;;57.05;26.37;;;;;;;-4.28;72.91;102156.98;2192875;80;21060;-72
2022/03/01 05:59:01;;;;;;;56.28;24.85;;;;;;;-4.10;72.71;102167.55;2193351;80;21113;-73
2022/03/01 06:02:03;;;;;;;56.10;25.68;;;;;;;-3.96;72.49;102168.64;2192547;80;21072;-77
2022/03/01 06:05:05;;;;;;;64.92;30.90;;;;;;;-3.72;72.88;102164.33;2120741;82;21013;-75
2022/03/01 06:08:07;;;;;;;64.92;26.87;;;;;;;-3.35;73.01;102165.44;2136416;81;21232;-73
2022/03/01 06:11:08;;;;;;;67.03;31.33;;;;;;;-3.03;72.80;102162.25;2135677;81;21044;-74
2022/03/01 06:14:12;;;;;;;57.90;26.27;;;;;;;-2.60;72.67;102175.66;2141531;81;21077;-73
2022/03/01 06:17:13;;;;;;;54.18;26.65;;;;;;;-2.32;71.93;102170.73;2171441;80;21067;-75
2022/03/01 06:20:17;;;;;;;58.33;25.68;;;;;;;-2.11;71.81;102178.47;2170642;80;20991;-74
2022/03/01 06:23:18;;;;;;;57.00;27.20;;;;;;;-1.85;71.54;102173.98;2172912;79;21076;-75
2022/03/01 06:26:20;;;;;;;52.93;24.52;;;;;;;-1.49;71.71;102164.83;2180242;79;21393;-69
2022/03/01 06:29:22;;;;;;;64.35;28.17;;;;;;;-1.04;71.52;102169.29;2184218;79;21095;-72
2022/03/01 06:32:23;;;;;;;55.88;28.32;;;;;;;-0.67;71.22;102163.03;2181335;79;21071;-75
2022/03/01 06:35:25;;;;;;;56.65;27.80;;;;;;;-0.33;70.93;102160.27;2175910;80;20986;-73
2022/03/01 06:38:26;;;;;;;59.55;27.62;;;;;;;0.20;70.66;102159.48;2177599;80;21110;-76
2022/03/01 06:41:28;;;;;;;60.80;30.88;;;;;;;0.38;69.71;102159.31;2180498;80;22328;-77
2022/03/01 06:44:29;;;;;;;55.45;28.50;;;;;;;0.71;70.15;102153.39;2171537;80;21481;-77
2022/03/01 06:47:31;;;;;;;56.35;28.25;;;;;;;1.15;69.79;102147.00;2162811;81;21046;-77
2022/03/01 06:50:32;;;;;;;62.10;31.07;;;;;;;1.51;69.26;102153.08;2158100;81;21101;-77
2022/03/01 06:53:36;;;;;;;74.42;36.13;;;;;;;1.86;68.84;102147.79;2162064;80;21025;-75
2022/03/01 06:56:38;;;;;;;69.77;33.73;;;;;;;2.32;68.82;102148.98;2158143;81;21058;-75
2022/03/01 06:59:39;;;;;;;80.10;40.20;;;;;;;2.77;68.42;102144.02;2213949;79;20973;-75
2022/03/01 07:02:42;;;;;;;98.37;44.38;;;;;;;3.27;67.89;102145.69;2217724;79;21540;-76
2022/03/01 07:05:44;;;;;;;75.70;37.15;;;;;;;3.67;67.48;102141.67;2214868;79;21028;-75
2022/03/01 07:08:46;;;;;;;67.55;33.53;;;;;;;4.03;66.76;102149.09;2215854;79;21088;-78
2022/03/01 07:11:48;;;;;;;70.32;33.75;;;;;;;4.21;65.80;102138.13;2210818;79;21240;-75
2022/03/01 07:14:50;;;;;;;67.70;34.03;;;;;;;4.26;65.73;102144.00;2213080;79;21075;-76
2022/03/01 07:17:52;;;;;;;68.22;34.78;;;;;;;4.25;64.59;102143.62;2214023;79;21012;-77
2022/03/01 07:20:53;;;;;;;65.52;34.30;;;;;;;4.24;64.75;102141.91;2211127;79;21060;-76
2022/03/01 07:23:55;;;;;;;66.07;35.03;;;;;;;4.42;64.48;102145.41;2203338;79;21040;-77
2022/03/01 07:26:56;;;;;;;58.35;32.05;;;;;;;4.57;64.18;102138.98;2191170;80;21193;-77
2022/03/01 07:29:58;;;;;;;68.60;31.37;;;;;;;4.77;63.58;102145.84;2193530;80;21075;-77
2022/03/01 07:33:01;;;;;;;67.35;33.28;;;;;;;5.00;63.13;102143.31;2186709;80;21298;-76
2022/03/01 07:36:03;;;;;;;72.40;35.70;;;;;;;4.79;61.99;102155.36;2185369;80;21044;-77
2022/03/01 07:39:05;;;;;;;65.83;32.98;;;;;;;4.70;62.35;102142.66;2189257;80;21484;-77
2022/03/01 07:42:08;;;;;;;65.25;32.73;;;;;;;4.91;62.22;102145.50;2192369;80;21041;-76
2022/03/01 07:45:11;;;;;;;67.97;34.25;;;;;;;4.75;61.45;102143.28;2195821;80;21059;-79
2022/03/01 07:48:13;;;;;;;60.52;32.00;;;;;;;4.39;60.73;102135.49;2192153;80;21658;-77
2022/03/01 07:51:16;;;;;;;61.20;29.57;;;;;;;4.21;60.96;102141.22;2189304;80;21038;-78
2022/03/01 07:54:18;;;;;;;58.35;29.35;;;;;;;4.37;61.19;102129.48;2190866;80;21643;-77
2022/03/01 07:57:20;;;;;;;57.00;30.02;;;;;;;4.39;60.51;102141.63;2189106;80;21038;-77
2022/03/01 08:00:24;;;;;;;51.28;27.45;;;;;;;4.52;60.49;102140.99;2189020;80;21016;-77
2022/03/01 08:03:28;;;;;;;47.65;25.72;;;;;;;4.67;60.79;102141.07;2190871;80;21574;-78
2022/03/01 08:06:29;;;;;;;49.83;25.50;;;;;;;4.69;59.92;102144.45;2189511;80;21493;-77
2022/03/01 08:09:31;;;;;;;52.20;27.13;;;;;;;4.59;59.56;102136.67;2189720;80;22136;-77
2022/03/01 08:12:34;;;;;;;52.48;26.60;;;;;;;4.74;59.87;102138.96;2192268;80;21071;-78
2022/03/01 08:15:38;;;;;;;51.73;28.60;;;;;;;5.03;60.29;102128.68;2189898;80;21050;-77
2022/03/01 08:18:39;;;;;;;53.15;26.33;;;;;;;5.20;59.49;102128.62;2185554;80;21088;-77
2022/03/01 08:21:43;;;;;;;47.75;26.52;;;;;;;5.37;59.37;102140.86;2183587;80;21403;-78
2022/03/01 08:24:46;;;;;;;49.13;26.35;;;;;;;5.40;58.96;102138.91;2204273;79;21638;-81
2022/03/01 08:27:48;;;;;;;47.62;25.60;;;;;;;5.47;58.55;102133.33;2213005;79;21024;-78
2022/03/01 08:30:51;;;;;;;47.75;25.55;;;;;;;5.48;58.16;102127.96;2215648;79;21045;-77
2022/03/01 08:33:53;;;;;;;49.42;24.70;;;;;;;5.34;58.31;102137.93;2215833;79;21012;-77
2022/03/01 08:36:55;;;;;;;50.25;26.62;;;;;;;5.49;58.29;102129.68;2213584;79;21009;-78
2022/03/01 08:39:57;;;;;;;43.92;25.27;;;;;;;5.52;57.60;102134.77;2214720;79;21606;-81
2022/03/01 08:42:58;;;;;;;41.85;23.02;;;;;;;5.22;57.07;102130.71;2190567;79;21001;-79
2022/03/01 08:46:00;;;;;;;45.10;23.67;;;;;;;5.38;57.88;102123.69;2175446;80;21594;-77
2022/03/01 08:49:01;;;;;;;39.23;22.37;;;;;;;5.64;57.23;102124.49;2176118;80;21452;-77
2022/03/01 08:52:04;;;;;;;44.08;23.25;;;;;;;5.83;57.26;102128.64;2146440;81;21064;-78
2022/03/01 08:55:09;;;;;;;37.65;19.98;;;;;;;5.84;56.50;102126.38;2170751;80;21001;-78
2022/03/01 08:58:13;;;;;;;40.52;22.55;;;;;;;5.92;56.40;102121.98;2181622;79;21108;-79
2022/03/01 09:01:15;;;;;;;41.92;21.80;;;;;;;5.69;56.23;102115.40;2206893;79;21017;-77
2022/03/01 09:04:17;;;;;;;36.63;21.17;;;;;;;5.64;55.41;102112.17;2203758;79;21064;-78
2022/03/01 09:07:20;;;;;;;36.88;21.25;;;;;;;5.70;55.79;102106.55;2210534;79;22078;-78
2022/03/01 09:10:24;;;;;;;36.13;20.75;;;;;;;5.73;56.45;102093.20;2178018;79;21064;-78
2022/03/01 09:13:26;;;;;;;33.35;19.60;;;;;;;6.10;56.52;102091.11;2157708;81;21030;-78
2022/03/01 09:16:30;;;;;;;33.58;18.20;;;;;;;6.40;55.60;102087.14;2183751;79;21476;-77
2022/03/01 09:19:31;;;;;;;30.48;17.45;;;;;;;6.52;55.45;102094.78;2179980;79;21378;-78
2022/03/01 09:22:34;;;;;;;25.25;14.03;;;;;;;6.34;54.39;102094.10;2164233;80;21629;-81
2022/03/01 09:25:35;;;;;;;28.80;15.53;;;;;;;6.34;53.94;102084.88;2134600;81;21046;-77
2022/03/01 09:28:37;;;;;;;25.55;14.30;;;;;;;6.24;54.56;102084.56;2150103;81;21542;-79
2022/03/01 09:31:41;;;;;;;31.45;14.35;;;;;;;6.25;52.66;102082.32;2142525;81;21058;-78
2022/03/01 09:34:47;;;;;;;29.20;14.33;;;;;;;5.91;52.41;102083.38;2150809;81;21016;-78
2022/03/01 09:37:48;;;;;;;21.30;12.58;;;;;;;5.99;53.62;102086.94;2172431;81;21107;-78
2022/03/01 09:40:49;;;;;;;19.48;11.93;;;;;;;6.12;52.71;102068.16;2128441;82;21063;-78
2022/03/01 09:43:58;;;;;;;20.35;12.05;;;;;;;6.02;52.14;102072.26;2106824;82;21560;-79
2022/03/01 09:46:57;;;;;;;20.05;11.90;;;;;;;5.77;51.84;102078.94;2173314;81;21033;-78
2022/03/01 09:49:59;;;;;;;24.43;13.80;;;;;;;5.67;50.18;102085.66;2148409;81;21178;-78
2022/03/01 09:53:03;;;;;;;25.32;13.03;;;;;;;5.52;51.01;102090.45;2164947;81;21009;-77
2022/03/01 09:56:06;;;;;;;21.77;12.15;;;;;;;5.43;51.58;102080.44;2171147;81;21057;-78
2022/03/01 09:59:07;;;;;;;19.87;11.63;;;;;;;5.57;51.36;102082.67;2171168;81;21041;-77
2022/03/01 10:02:10;;;;;;;16.55;10.63;;;;;;;5.55;51.03;102085.88;2149235;81;21115;-78
2022/03/01 10:05:14;;;;;;;18.80;10.80;;;;;;;5.46;49.43;102079.80;2149612;81;21048;-78
2022/03/01 10:08:20;;;;;;;15.23;8.73;;;;;;;5.20;50.85;102074.66;2161732;80;21626;-77
2022/03/01 10:11:23;;;;;;;20.50;10.68;;;;;;;5.18;48.96;102068.66;2148777;81;22198;-78
2022/03/01 10:14:33;;;;;;;22.67;11.85;;;;;;;5.21;50.29;102063.66;2147527;82;21092;-78
2022/03/01 10:17:41;;;;;;;18.75;10.90;;;;;;;5.16;50.07;102066.57;2164437;81;21017;-77
2022/03/01 10:20:45;;;;;;;19.73;10.55;;;;;;;5.22;49.42;102060.96;2139112;82;21025;-78
2022/03/01 10:23:50;;;;;;;18.52;10.78;;;;;;;4.99;49.56;102054.33;2146662;80;21026;-79
2022/03/01 10:26:59;;;;;;;20.52;12.03;;;;;;;4.92;50.49;102063.00;2207893;80;22197;-79
2022/03/01 10:30:03;;;;;;;21.45;11.25;;;;;;;5.00;50.17;102060.44;2206520;80;21104;-77
2022/03/01 10:33:15;;;;;;;17.70;10.30;;;;;;;5.07;49.62;102053.92;2209498;80;21056;-78
2022/03/01 10:36:24;;;;;;;14.70;9.80;;;;;;;5.11;50.41;102052.34;2184013;80;21752;-78
2022/03/01 10:39:31;;;;;;;18.48;9.73;;;;;;;5.19;49.59;102049.29;2182309;80;21645;-78
2022/03/01 10:42:32;;;;;;;14.30;8.60;;;;;;;5.12;50.00;102040.02;2206765;80;21040;-79
2022/03/01 10:45:37;;;;;;;15.93;8.48;;;;;;;5.17;49.74;102026.15;2203473;80;21057;-78
2022/03/01 10:48:42;;;;;;;22.87;11.80;;;;;;;5.28;50.25;102021.13;2205927;80;21143;-78
2022/03/01 10:51:51;;;;;;;22.00;11.43;;;;;;;5.32;49.89;102018.73;2186928;80;21069;-78
2022/03/01 10:54:56;;;;;;;15.68;9.90;;;;;;;5.39;50.46;102005.59;2201898;80;21104;-78
2022/03/01 10:58:11;;;;;;;18.20;10.30;;;;;;;5.46;49.15;102009.17;2206263;80;21085;-78
2022/03/01 11:01:13;;;;;;;18.73;10.32;;;;;;;5.41;49.92;102008.14;2206886;80;21550;-77
2022/03/01 11:04:15;;;;;;;19.95;10.08;;;;;;;5.32;48.94;101998.11;2204099;80;21015;-78
2022/03/01 11:07:19;;;;;;;15.65;8.13;;;;;;;5.33;50.04;101997.20;2209099;80;20990;-78
2022/03/01 11:10:23;;;;;;;17.80;9.43;;;;;;;5.43;49.20;101992.23;2206789;80;21314;-77
2022/03/01 11:13:25;;;;;;;14.68;9.00;;;;;;;5.22;48.77;101985.11;2208850;80;21073;-78
2022/03/01 11:17:08;;;;;;;11.48;6.95;;;;;;;5.25;49.59;101987.09;2208197;80;21041;-77
2022/03/01 11:20:32;;;;;;;15.25;8.65;;;;;;;5.32;47.76;101978.37;2203572;80;21088;-77
2022/03/01 11:23:34;;;;;;;14.10;8.65;;;;;;;5.09;47.18;101977.88;2205581;80;21516;-77
2022/03/01 11:26:38;;;;;;;13.68;7.83;;;;;;;5.02;47.89;101969.97;2205182;80;21069;-78
2022/03/01 11:29:41;;;;;;;14.75;7.78;;;;;;;5.01;47.84;101963.47;2206146;80;21033;-78
2022/03/01 11:32:46;;;;;;;15.32;8.83;;;;;;;5.02;48.26;101961.23;2207876;80;21028;-78
2022/03/01 11:35:53;;;;;;;14.43;8.25;;;;;;;5.14;48.31;101965.32;2205156;80;21080;-77
2022/03/01 11:39:10;;;;;;;14.70;7.60;;;;;;;5.32;48.94;101961.26;2208934;80;21029;-78
2022/03/01 11:42:18;;;;;;;10.48;6.95;;;;;;;5.44;48.15;101958.41;2184590;80;21564;-77
2022/03/01 11:45:20;;;;;;;15.28;8.18;;;;;;;5.44;47.93;101937.36;2201567;80;21073;-78
2022/03/01 11:48:28;;;;;;;13.93;8.45;;;;;;;5.51;48.16;101935.56;2204977;80;21306;-78
2022/03/01 11:51:36;;;;;;;17.25;9.50;;;;;;;5.47;46.57;101923.53;2205330;80;21008;-77
2022/03/01 11:54:43;;;;;;;16.75;8.75;;;;;;;5.38;47.39;101926.71;2205046;80;22394;-79
2022/03/01 11:57:45;;;;;;;18.70;9.05;;;;;;;5.35;47.61;101926.42;2206785;80;21032;-80
2022/03/01 12:00:48;;;;;;;16.97;9.00;;;;;;;5.30;46.94;101922.36;2204844;80;21024;-78
2022/03/01 12:03:52;;;;;;;15.20;8.83;;;;;;;5.38;47.27;101906.97;2205710;80;21624;-77
2022/03/01 12:06:55;;;;;;;19.80;10.65;;;;;;;5.39;47.31;101910.81;2208078;80;21044;-77
2022/03/01 12:10:02;;;;;;;16.23;9.70;;;;;;;5.32;47.62;101908.61;2206275;80;21103;-79
2022/03/01 12:13:08;;;;;;;16.25;9.55;;;;;;;5.43;48.21;101905.36;2207566;80;21196;-77
2022/03/01 12:16:29;;;;;;;18.07;8.73;;;;;;;5.47;46.77;101895.05;2205103;80;21037;-78
2022/03/01 12:19:33;;;;;;;;;;;;;;;5.29;47.18;101895.16;2211316;80;20997;-77
2022/03/01 12:22:34;;;;;;;14.07;8.65;;;;;;;5.27;46.89;101889.16;2207050;80;20168;-77
2022/03/01 12:25:39;;;;;;;17.52;9.38;;;;;;;5.29;47.42;101885.95;2172217;80;21116;-77
2022/03/01 12:28:45;;;;;;;15.98;8.78;;;;;;;5.41;47.54;101879.14;2189224;80;21044;-78
2022/03/01 12:32:01;;;;;;;14.15;7.90;;;;;;;5.49;46.72;101870.77;2189995;80;20990;-77
2022/03/01 12:35:04;;;;;;;16.62;10.25;;;;;;;5.44;46.40;101878.12;2188275;80;22351;-77
2022/03/01 12:38:12;;;;;;;18.32;9.83;;;;;;;5.22;47.56;101875.89;2191888;79;21006;-78
2022/03/01 12:41:14;;;;;;;19.07;10.55;;;;;;;5.25;47.42;101873.91;2190940;80;21018;-77
2022/03/01 12:44:19;;;;;;;35.75;10.58;;;;;;;5.26;47.49;101871.65;2192158;80;20993;-78
2022/03/01 12:47:23;;;;;;;22.62;10.38;;;;;;;5.23;47.22;101868.36;2181053;80;21584;-77
2022/03/01 12:50:24;;;;;;;16.62;10.23;;;;;;;5.14;47.88;101866.64;2161003;81;21036;-77
2022/03/01 12:53:26;;;;;;;17.92;9.63;;;;;;;5.19;47.73;101861.13;2148041;81;21037;-78
2022/03/01 12:56:32;;;;;;;16.82;9.35;;;;;;;5.11;47.06;101853.66;2148965;81;21074;-78
2022/03/01 12:59:35;;;;;;;17.35;10.00;;;;;;;5.18;47.88;101843.65;2196220;80;21010;-78
2022/03/01 13:02:37;;;;;;;15.30;9.08;;;;;;;5.26;47.69;101847.13;2192844;79;21022;-77
2022/03/01 13:05:38;;;;;;;13.38;8.00;;;;;;;5.21;47.10;101839.52;2187476;80;21515;-80
2022/03/01 13:08:43;;;;;;;16.87;8.40;;;;;;;5.06;46.50;101833.81;2198199;80;22604;-77
2022/03/01 13:11:46;;;;;;;14.47;9.03;;;;;;;4.98;46.36;101832.09;2194876;80;21041;-78
2022/03/01 13:14:56;;;;;;;14.28;8.88;;;;;;;4.92;47.00;101817.04;2195352;80;21025;-79
2022/03/01 13:18:04;;;;;;;17.05;8.78;;;;;;;5.00;47.36;101820.55;2186732;79;21057;-77
2022/03/01 13:21:04;;;;;;;15.00;8.63;;;;;;;5.12;47.94;101815.03;2185155;80;22161;-77
2022/03/01 13:24:19;;;;;;;15.10;8.93;;;;;;;5.17;46.83;101823.03;2194388;80;21603;-78
2022/03/01 13:27:22;;;;;;;16.42;9.53;;;;;;;5.14;47.18;101810.06;2177694;79;21036;-78
2022/03/01 13:30:30;;;;;;;14.75;8.80;;;;;;;5.12;46.12;101807.14;2189475;79;21027;-77
2022/03/01 13:33:32;;;;;;;14.18;8.70;;;;;;;5.08;46.90;101808.27;2182474;79;21085;-77
2022/03/01 13:36:43;;;;;;;15.50;9.33;;;;;;;5.17;46.37;101805.09;2187242;79;21088;-77
2022/03/01 13:39:45;;;;;;;18.98;9.20;;;;;;;5.11;46.32;101796.25;2179853;79;21047;-77
2022/03/01 13:42:47;;;;;;;16.45;10.38;;;;;;;5.04;46.42;101790.95;2130704;82;22172;-78
2022/03/01 13:45:56;;;;;;;15.45;9.70;;;;;;;4.93;46.70;101781.09;2182851;79;21100;-77
2022/03/01 13:49:07;;;;;;;17.57;10.18;;;;;;;4.88;46.48;101785.77;2182127;79;21015;-77
2022/03/01 13:52:16;;;;;;;20.25;10.10;;;;;;;4.81;46.60;101779.98;2182984;80;21015;-77
2022/03/01 13:55:21;;;;;;;17.37;9.75;;;;;;;4.78;46.97;101774.91;2175650;80;21077;-77
2022/03/01 13:58:24;;;;;;;17.60;9.83;;;;;;;4.80;46.24;101778.31;2151968;81;21009;-78